createdAt,value
2022-07-26T00:01:52.592Z,87.88
2022-07-26T00:04:23.373Z,87.75
2022-07-26T00:06:53.951Z,88.02
2022-07-26T00:09:24.517Z,88.04
2022-07-26T00:11:55.043Z,87.38
2022-07-26T00:14:25.594Z,87.47
2022-07-26T00:16:56.164Z,87.71
2022-07-26T00:19:26.786Z,87.73
2022-07-26T00:22:14.992Z,87.46
2022-07-26T00:24:45.525Z,87.65
2022-07-26T00:27:16.003Z,87.69
2022-07-26T00:29:46.552Z,87.73
2022-07-26T00:32:17.164Z,87.68
2022-07-26T00:34:47.717Z,87.75
2022-07-26T00:37:20.632Z,87.54
2022-07-26T00:39:50.783Z,87.24
2022-07-26T00:42:21.360Z,87.20
2022-07-26T00:44:51.960Z,87.07
2022-07-26T00:47:22.439Z,86.80
2022-07-26T00:49:53.119Z,86.93
2022-07-26T00:52:23.611Z,86.67
2022-07-26T00:54:56.272Z,87.07
2022-07-26T00:57:26.826Z,86.77
2022-07-26T00:59:57.409Z,86.31
2022-07-26T01:02:28.536Z,85.43
2022-07-26T01:04:59.118Z,85.51
2022-07-26T01:07:30.792Z,86.03
2022-07-26T01:10:02.284Z,85.50
2022-07-26T01:12:33.051Z,86.40
2022-07-26T01:15:03.552Z,86.01
2022-07-26T01:17:34.338Z,85.72
2022-07-26T01:20:08.290Z,86.02
2022-07-26T01:22:40.409Z,85.73
2022-07-26T01:25:11.984Z,85.16
2022-07-26T01:27:43.564Z,85.04
2022-07-26T01:30:16.138Z,85.03
2022-07-26T01:32:46.517Z,84.91
2022-07-26T01:35:17.024Z,84.60
2022-07-26T01:37:47.530Z,84.29
2022-07-26T01:40:18.073Z,84.79
2022-07-26T01:42:48.639Z,85.05
2022-07-26T01:45:19.463Z,85.51
2022-07-26T01:47:51.192Z,85.66
2022-07-26T01:50:21.959Z,85.79
2022-07-26T01:52:52.466Z,85.64
2022-07-26T01:55:23.117Z,85.57
2022-07-26T01:57:53.634Z,85.14
2022-07-26T02:00:24.286Z,85.04
2022-07-26T02:02:55.048Z,84.59
2022-07-26T02:05:25.636Z,84.60
2022-07-26T02:07:56.166Z,84.54
2022-07-26T02:10:28.322Z,84.20
2022-07-26T02:12:58.869Z,83.89
2022-07-26T02:15:29.566Z,83.77
2022-07-26T02:18:00.087Z,83.71
2022-07-26T02:20:32.176Z,83.31
2022-07-26T02:23:03.319Z,83.24
2022-07-26T02:25:33.866Z,83.47
2022-07-26T02:28:04.426Z,84.19
2022-07-26T02:30:35.144Z,84.17
2022-07-26T02:33:06.069Z,84.40
2022-07-26T02:35:37.223Z,84.63
2022-07-26T02:38:11.017Z,85.00
2022-07-26T02:40:42.455Z,84.78
2022-07-26T02:43:12.950Z,84.58
2022-07-26T02:45:43.395Z,84.87
2022-07-26T02:48:14.207Z,85.26
2022-07-26T02:50:44.634Z,84.99
2022-07-26T02:53:15.238Z,84.58
2022-07-26T02:55:45.642Z,84.66
2022-07-26T02:58:16.218Z,84.88
2022-07-26T03:00:46.589Z,84.88
2022-07-26T03:03:17.100Z,85.25
2022-07-26T03:05:47.653Z,85.20
2022-07-26T03:08:18.181Z,85.17
2022-07-26T03:10:48.718Z,85.00
2022-07-26T03:13:20.658Z,84.89
2022-07-26T03:15:51.210Z,84.47
2022-07-26T03:18:21.670Z,84.44
2022-07-26T03:20:52.311Z,83.71
2022-07-26T03:23:22.743Z,83.77
2022-07-26T03:25:53.703Z,83.43
2022-07-26T03:28:24.243Z,83.12
2022-07-26T03:30:54.796Z,82.72
2022-07-26T03:33:25.867Z,82.39
2022-07-26T03:35:56.314Z,81.63
2022-07-26T03:38:26.819Z,81.67
2022-07-26T03:40:57.829Z,81.00
2022-07-26T03:43:28.366Z,80.84
2022-07-26T03:45:58.889Z,80.45
2022-07-26T03:48:29.504Z,80.40
2022-07-26T03:51:00.315Z,79.49
2022-07-26T03:53:30.807Z,78.86
2022-07-26T03:56:19.252Z,78.78
2022-07-26T03:58:50.171Z,78.78
2022-07-26T04:01:20.771Z,78.44
2022-07-26T04:03:51.249Z,78.18
2022-07-26T04:06:23.128Z,77.53
2022-07-26T04:08:54.071Z,77.24
2022-07-26T04:11:26.529Z,76.94
2022-07-26T04:13:57.238Z,76.65
2022-07-26T04:16:28.072Z,76.45
2022-07-26T04:18:58.570Z,76.09
2022-07-26T04:21:29.076Z,75.02
2022-07-26T04:24:01.170Z,75.39
2022-07-26T04:26:32.667Z,75.16
2022-07-26T04:29:03.072Z,74.88
2022-07-26T04:31:36.264Z,74.65
2022-07-26T04:34:07.453Z,74.43
2022-07-26T04:36:38.942Z,73.67
2022-07-26T04:39:09.434Z,74.14
2022-07-26T04:41:39.887Z,74.24
2022-07-26T04:44:10.929Z,73.92
2022-07-26T04:46:44.981Z,73.90
2022-07-26T04:49:13.912Z,73.12
2022-07-26T04:51:44.450Z,72.70
2022-07-26T04:54:16.599Z,71.63
2022-07-26T04:56:47.616Z,71.34
2022-07-26T04:59:21.653Z,70.93
2022-07-26T05:01:50.579Z,70.37
2022-07-26T05:04:21.141Z,69.38
2022-07-26T05:06:51.509Z,67.97
2022-07-26T05:09:22.110Z,65.50
2022-07-26T05:11:52.525Z,64.16
2022-07-26T05:14:23.388Z,64.10
2022-07-26T05:16:53.955Z,63.21
2022-07-26T05:19:24.385Z,62.80
2022-07-26T05:21:54.818Z,62.65
2022-07-26T05:24:25.292Z,62.14
2022-07-26T05:26:58.646Z,60.29
2022-07-26T05:29:27.822Z,56.85
2022-07-26T05:31:58.310Z,54.52
2022-07-26T05:34:28.893Z,52.71
2022-07-26T05:36:59.751Z,51.16
2022-07-26T05:39:30.152Z,48.31
2022-07-26T05:42:00.605Z,45.77
2022-07-26T05:44:31.122Z,45.52
2022-07-26T05:47:01.588Z,44.10
2022-07-26T05:49:40.138Z,43.49
2022-07-26T05:52:06.030Z,42.19
2022-07-26T05:54:37.806Z,41.34
2022-07-26T05:57:08.277Z,43.28
2022-07-26T05:59:38.750Z,44.66
2022-07-26T06:02:11.313Z,43.42
2022-07-26T06:04:42.162Z,41.87
2022-07-26T06:07:13.652Z,40.43
2022-07-26T06:09:45.022Z,40.85
2022-07-26T06:12:15.590Z,39.09
2022-07-26T06:14:46.397Z,37.14
2022-07-26T06:17:19.878Z,35.94
2022-07-26T06:19:51.126Z,34.33
2022-07-26T06:22:23.202Z,33.66
2022-07-26T06:24:53.953Z,35.66
2022-07-26T06:27:24.429Z,35.04
2022-07-26T06:29:55.005Z,37.07
2022-07-26T06:32:25.672Z,38.32
2022-07-26T06:34:56.325Z,39.13
2022-07-26T06:37:26.825Z,42.16
2022-07-26T06:39:57.335Z,41.87
2022-07-26T06:42:27.871Z,41.83
2022-07-26T06:44:58.344Z,46.38
2022-07-26T06:47:29.035Z,47.02
2022-07-26T06:49:59.492Z,44.77
2022-07-26T06:52:30.096Z,42.59
2022-07-26T06:55:03.130Z,44.32
2022-07-26T06:57:33.567Z,44.52
2022-07-26T07:00:08.224Z,46.70
2022-07-26T07:02:38.801Z,49.58
2022-07-26T07:05:09.575Z,52.91
2022-07-26T07:07:42.720Z,55.09
2022-07-26T07:10:12.876Z,56.71
2022-07-26T07:12:44.910Z,59.34
2022-07-26T07:15:15.413Z,59.49
2022-07-26T07:17:48.086Z,60.17
2022-07-26T07:20:20.569Z,60.46
2022-07-26T07:22:52.633Z,59.25
2022-07-26T07:25:30.767Z,58.85
2022-07-26T07:27:55.365Z,59.04
2022-07-26T07:30:26.359Z,59.24
2022-07-26T07:32:59.946Z,58.73
2022-07-26T07:35:32.002Z,57.53
2022-07-26T07:38:02.440Z,57.15
2022-07-26T07:40:33.068Z,56.48
2022-07-26T07:43:04.283Z,56.82
2022-07-26T07:45:35.205Z,56.96
2022-07-26T07:48:07.419Z,56.37
2022-07-26T07:50:37.829Z,56.50
2022-07-26T07:53:08.359Z,56.12
2022-07-26T07:55:41.594Z,55.22
2022-07-26T07:58:10.861Z,54.45
2022-07-26T08:00:41.382Z,53.55
2022-07-26T08:03:11.896Z,53.30
2022-07-26T08:05:42.429Z,53.00
2022-07-26T08:08:12.806Z,52.44
2022-07-26T08:10:51.554Z,52.26
2022-07-26T08:13:16.938Z,51.88
2022-07-26T08:15:49.503Z,52.25
2022-07-26T08:18:22.320Z,52.89
2022-07-26T08:20:54.427Z,54.39
2022-07-26T08:23:25.304Z,54.28
2022-07-26T08:26:00.724Z,54.63
2022-07-26T08:28:46.666Z,55.28
2022-07-26T08:31:02.499Z,55.47
2022-07-26T08:33:33.656Z,55.79
2022-07-26T08:36:04.177Z,56.43
2022-07-26T08:38:34.823Z,56.75
2022-07-26T08:41:05.334Z,56.33
2022-07-26T08:43:51.086Z,56.15
2022-07-26T08:46:08.098Z,56.25
2022-07-26T08:48:39.437Z,56.98
2022-07-26T08:51:11.797Z,56.96
2022-07-26T08:53:42.329Z,57.77
2022-07-26T08:56:13.947Z,58.22
2022-07-26T08:58:45.753Z,57.70
2022-07-26T09:01:16.350Z,57.55
2022-07-26T09:03:47.388Z,56.78
2022-07-26T09:06:22.799Z,55.93
2022-07-26T09:08:55.081Z,55.29
2022-07-26T09:11:28.588Z,54.92
2022-07-26T09:14:01.595Z,54.25
2022-07-26T09:16:37.282Z,53.47
2022-07-26T09:19:21.750Z,53.85
2022-07-26T09:21:52.924Z,53.64
2022-07-26T09:24:35.126Z,54.67
2022-07-26T09:27:07.834Z,54.87
2022-07-26T09:29:51.492Z,55.31
2022-07-26T09:32:24.740Z,56.14
2022-07-26T09:34:58.973Z,56.89
2022-07-26T09:37:37.625Z,56.68
2022-07-26T09:40:16.441Z,56.72
2022-07-26T09:42:59.119Z,56.24
2022-07-26T09:45:32.795Z,55.20
2022-07-26T09:48:04.976Z,53.74
2022-07-26T09:50:35.482Z,51.81
2022-07-26T09:53:14.031Z,50.51
2022-07-26T09:55:50.622Z,51.87
2022-07-26T09:58:21.123Z,52.06
2022-07-26T10:00:52.121Z,52.21
2022-07-26T10:03:22.850Z,53.01
2022-07-26T10:05:53.875Z,52.69
2022-07-26T10:08:25.344Z,52.59
2022-07-26T10:11:05.289Z,52.25
2022-07-26T10:13:35.847Z,52.01
2022-07-26T10:16:07.923Z,51.09
2022-07-26T10:18:43.051Z,50.98
2022-07-26T10:21:21.051Z,50.61
2022-07-26T10:23:58.190Z,50.01
2022-07-26T10:26:37.677Z,51.64
2022-07-26T10:29:26.454Z,51.73
2022-07-26T10:32:03.329Z,51.55
2022-07-26T10:34:37.556Z,51.38
2022-07-26T10:37:10.989Z,50.83
2022-07-26T10:39:41.518Z,50.71
2022-07-26T10:42:12.293Z,50.89
2022-07-26T10:44:45.827Z,51.48
2022-07-26T10:47:18.700Z,52.11
2022-07-26T10:49:57.643Z,51.72
2022-07-26T10:52:29.938Z,52.39
2022-07-26T10:55:07.872Z,52.41
2022-07-26T10:57:43.204Z,52.30
2022-07-26T11:00:22.608Z,52.42
2022-07-26T11:03:00.545Z,51.53
2022-07-26T11:05:34.728Z,51.60
2022-07-26T11:08:10.298Z,51.62
2022-07-26T11:10:43.406Z,52.04
2022-07-26T11:13:19.786Z,52.46
2022-07-26T11:15:54.220Z,51.80
2022-07-26T11:18:31.434Z,51.69
2022-07-26T11:21:16.761Z,49.74
2022-07-26T11:23:50.660Z,49.57
2022-07-26T11:26:23.537Z,48.81
2022-07-26T11:29:06.254Z,48.75
2022-07-26T11:31:50.329Z,48.64
2022-07-26T11:34:27.964Z,48.89
2022-07-26T11:37:02.593Z,49.90
2022-07-26T11:39:35.295Z,49.53
2022-07-26T11:42:08.406Z,49.46
2022-07-26T11:44:40.895Z,49.68
2022-07-26T11:47:16.536Z,50.23
2022-07-26T11:50:00.121Z,49.99
2022-07-26T11:52:25.466Z,50.78
2022-07-26T11:54:54.761Z,49.95
2022-07-26T11:57:33.034Z,49.70
2022-07-26T12:00:06.579Z,49.80
2022-07-26T12:02:37.026Z,50.62
2022-07-26T12:05:22.101Z,51.09
2022-07-26T12:08:03.550Z,51.23
2022-07-26T12:10:34.988Z,50.89
2022-07-26T12:13:16.141Z,51.95
2022-07-26T12:15:52.664Z,52.54
2022-07-26T12:18:31.613Z,56.10
2022-07-26T12:21:07.556Z,60.99
2022-07-26T12:23:48.956Z,64.18
2022-07-26T12:26:24.819Z,66.43
2022-07-26T12:28:56.673Z,68.54
2022-07-26T12:31:29.897Z,71.13
2022-07-26T12:34:00.868Z,74.51
2022-07-26T12:36:34.226Z,77.02
2022-07-26T12:39:06.009Z,79.33
2022-07-26T12:41:38.470Z,81.39
2022-07-26T12:44:11.586Z,81.74
2022-07-26T12:46:44.475Z,81.45
2022-07-26T12:49:15.079Z,81.35
2022-07-26T12:51:45.497Z,80.92
2022-07-26T12:54:16.066Z,80.05
2022-07-26T12:56:46.582Z,79.13
2022-07-26T12:59:18.701Z,79.44
2022-07-26T13:01:49.181Z,78.51
2022-07-26T13:04:20.071Z,78.61
2022-07-26T13:06:50.629Z,78.42
2022-07-26T13:09:21.181Z,78.39
2022-07-26T13:11:51.822Z,78.13
2022-07-26T13:14:22.355Z,77.82
2022-07-26T13:16:53.248Z,77.77
2022-07-26T13:19:24.051Z,78.02
2022-07-26T13:21:54.545Z,76.05
2022-07-26T13:24:26.316Z,75.34
2022-07-26T13:26:58.905Z,75.37
2022-07-26T13:29:30.937Z,75.78
2022-07-26T13:32:01.552Z,74.53
2022-07-26T13:34:35.066Z,74.15
2022-07-26T13:37:08.224Z,75.04
2022-07-26T13:39:36.795Z,73.63
2022-07-26T13:42:07.372Z,73.79
2022-07-26T13:44:37.830Z,73.82
2022-07-26T13:47:08.341Z,74.30
2022-07-26T13:49:38.939Z,73.96
2022-07-26T13:52:13.628Z,73.49
2022-07-26T13:54:41.645Z,72.91
2022-07-26T13:57:12.078Z,72.51
2022-07-26T13:59:42.457Z,71.96
2022-07-26T14:02:13.048Z,70.42
2022-07-26T14:04:43.719Z,69.93
2022-07-26T14:07:14.285Z,68.93
2022-07-26T14:09:44.642Z,69.78
2022-07-26T14:12:15.952Z,69.02
2022-07-26T14:14:46.554Z,68.58
2022-07-26T14:17:17.047Z,68.15
2022-07-26T14:19:47.484Z,67.24
2022-07-26T14:22:18.072Z,69.43
2022-07-26T14:24:48.654Z,68.24
2022-07-26T14:27:19.187Z,68.11
2022-07-26T14:29:49.954Z,67.45
2022-07-26T14:32:22.123Z,67.25
2022-07-26T14:34:52.946Z,70.07
2022-07-26T14:37:42.198Z,71.69
2022-07-26T14:39:55.982Z,71.05
2022-07-26T14:42:26.509Z,70.38
2022-07-26T14:44:56.955Z,68.25
2022-07-26T14:47:27.386Z,68.13
2022-07-26T14:50:00.576Z,67.02
2022-07-26T14:52:30.011Z,67.25
2022-07-26T14:55:00.492Z,67.37
2022-07-26T14:57:31.292Z,66.81
2022-07-26T15:00:01.911Z,67.85
2022-07-26T15:02:32.655Z,66.84
2022-07-26T15:05:03.215Z,66.31
2022-07-26T15:07:34.160Z,65.05
2022-07-26T15:10:06.674Z,64.97
2022-07-26T15:12:38.040Z,63.31
2022-07-26T15:15:09.985Z,63.53
2022-07-26T15:17:40.447Z,63.43
2022-07-26T15:20:11.060Z,63.52
2022-07-26T15:22:41.670Z,61.93
2022-07-26T15:25:12.125Z,61.77
2022-07-26T15:27:43.765Z,62.15
2022-07-26T15:30:15.933Z,62.35
2022-07-26T15:32:46.942Z,61.43
2022-07-26T15:35:18.221Z,61.99
2022-07-26T15:37:48.570Z,62.20
2022-07-26T15:40:20.758Z,61.78
2022-07-26T15:42:52.175Z,60.94
2022-07-26T15:45:24.904Z,60.87
2022-07-26T15:48:04.575Z,62.18
2022-07-26T15:50:29.934Z,61.45
2022-07-26T15:53:00.439Z,61.66
2022-07-26T15:55:30.910Z,61.49
2022-07-26T15:58:01.437Z,61.38
2022-07-26T16:00:32.168Z,61.78
2022-07-26T16:03:02.651Z,61.47
2022-07-26T16:05:34.684Z,61.64
2022-07-26T16:08:05.347Z,61.56
2022-07-26T16:10:35.921Z,60.68
2022-07-26T16:13:06.689Z,59.70
2022-07-26T16:15:37.453Z,58.59
2022-07-26T16:18:08.102Z,57.67
2022-07-26T16:20:38.529Z,58.66
2022-07-26T16:23:09.745Z,57.34
2022-07-26T16:25:40.202Z,57.46
2022-07-26T16:28:10.641Z,58.02
2022-07-26T16:30:41.981Z,59.34
2022-07-26T16:33:12.719Z,57.33
2022-07-26T16:35:43.457Z,56.54
2022-07-26T16:38:13.914Z,56.97
2022-07-26T16:40:44.660Z,57.20
2022-07-26T16:43:15.287Z,57.00
2022-07-26T16:45:45.750Z,56.08
2022-07-26T16:48:17.041Z,56.52
2022-07-26T16:50:47.610Z,55.81
2022-07-26T16:53:18.097Z,55.35
2022-07-26T16:55:50.254Z,55.26
2022-07-26T16:58:21.416Z,53.69
2022-07-26T17:00:51.937Z,54.08
2022-07-26T17:03:25.974Z,52.07
2022-07-26T17:05:56.460Z,51.71
2022-07-26T17:08:26.929Z,51.69
2022-07-26T17:10:58.093Z,50.91
2022-07-26T17:13:28.475Z,50.18
2022-07-26T17:16:00.379Z,49.41
2022-07-26T17:18:30.866Z,49.35
2022-07-26T17:21:01.937Z,49.43
2022-07-26T17:23:32.564Z,50.86
2022-07-26T17:26:03.923Z,51.94
2022-07-26T17:28:34.436Z,52.67
2022-07-26T17:31:05.134Z,53.52
2022-07-26T17:33:35.558Z,53.66
2022-07-26T17:36:23.516Z,54.89
2022-07-26T17:38:54.828Z,55.74
2022-07-26T17:41:32.650Z,55.52
2022-07-26T17:43:58.901Z,54.63
2022-07-26T17:46:31.404Z,53.02
2022-07-26T17:49:02.391Z,53.48
2022-07-26T17:51:33.324Z,52.91
2022-07-26T17:54:03.993Z,52.98
2022-07-26T17:56:36.806Z,53.92
2022-07-26T17:59:08.599Z,54.05
2022-07-26T18:01:39.341Z,55.29
2022-07-26T18:04:11.411Z,55.31
2022-07-26T18:06:42.421Z,56.34
2022-07-26T18:09:14.150Z,56.41
2022-07-26T18:11:44.893Z,56.84
2022-07-26T18:14:15.340Z,56.91
2022-07-26T18:16:47.579Z,56.83
2022-07-26T18:19:20.290Z,57.35
2022-07-26T18:21:51.527Z,56.59
2022-07-26T18:24:23.590Z,57.33
2022-07-26T18:26:54.131Z,57.70
2022-07-26T18:29:24.604Z,58.35
2022-07-26T18:31:55.095Z,58.05
2022-07-26T18:34:25.654Z,58.34
2022-07-26T18:36:56.176Z,57.19
2022-07-26T18:39:32.849Z,59.58
2022-07-26T18:41:58.792Z,57.10
2022-07-26T18:44:29.515Z,57.55
2022-07-26T18:47:00.531Z,57.16
2022-07-26T18:49:33.193Z,57.10
2022-07-26T18:52:08.323Z,57.19
2022-07-26T18:54:37.732Z,57.31
2022-07-26T18:57:08.163Z,57.53
2022-07-26T18:59:38.751Z,57.03
2022-07-26T19:02:10.240Z,57.11
2022-07-26T19:04:40.736Z,57.33
2022-07-26T19:07:11.106Z,57.76
2022-07-26T19:09:41.530Z,57.46
2022-07-26T19:12:12.056Z,57.64
2022-07-26T19:14:42.594Z,57.97
2022-07-26T19:17:13.023Z,57.31
2022-07-26T19:19:43.681Z,57.50
2022-07-26T19:22:14.731Z,57.73
2022-07-26T19:24:45.122Z,57.64
2022-07-26T19:27:15.557Z,57.54
2022-07-26T19:29:46.235Z,58.03
2022-07-26T19:32:16.928Z,58.50
2022-07-26T19:34:47.440Z,58.53
2022-07-26T19:37:20.380Z,59.16
2022-07-26T19:39:52.547Z,59.07
2022-07-26T19:42:23.224Z,59.15
2022-07-26T19:44:53.854Z,59.47
2022-07-26T19:47:24.482Z,59.71
2022-07-26T19:49:55.136Z,59.65
2022-07-26T19:52:25.570Z,59.27
2022-07-26T19:54:56.055Z,59.90
2022-07-26T19:57:26.510Z,59.92
2022-07-26T19:59:57.123Z,59.29
2022-07-26T20:02:28.253Z,59.95
2022-07-26T20:04:59.193Z,59.42
2022-07-26T20:07:29.863Z,59.68
2022-07-26T20:10:00.424Z,59.93
2022-07-26T20:12:30.919Z,59.78
2022-07-26T20:15:01.837Z,59.58
2022-07-26T20:17:33.949Z,58.47
2022-07-26T20:20:06.473Z,58.75
2022-07-26T20:22:37.386Z,58.78
2022-07-26T20:25:08.709Z,58.92
2022-07-26T20:27:39.549Z,58.13
2022-07-26T20:30:11.136Z,57.88
2022-07-26T20:32:41.606Z,58.07
2022-07-26T20:35:12.284Z,58.31
2022-07-26T20:37:43.526Z,58.43
2022-07-26T20:40:15.556Z,57.71
2022-07-26T20:42:47.568Z,57.88
2022-07-26T20:45:18.953Z,58.33
2022-07-26T20:47:49.438Z,58.14
2022-07-26T20:50:20.490Z,58.11
2022-07-26T20:52:51.196Z,57.97
2022-07-26T20:55:22.939Z,58.07
2022-07-26T20:57:53.353Z,58.10
2022-07-26T21:00:24.947Z,58.02
2022-07-26T21:02:57.265Z,58.33
2022-07-26T21:05:32.379Z,57.85
2022-07-26T21:08:01.271Z,58.20
2022-07-26T21:10:31.982Z,58.12
2022-07-26T21:13:02.680Z,57.94
2022-07-26T21:15:33.277Z,58.13
2022-07-26T21:18:03.720Z,57.77
2022-07-26T21:20:34.481Z,57.91
2022-07-26T21:23:16.792Z,58.38
2022-07-26T21:25:37.479Z,58.55
2022-07-26T21:28:08.219Z,58.57
2022-07-26T21:30:38.753Z,58.94
2022-07-26T21:33:09.243Z,59.18
2022-07-26T21:35:43.915Z,58.70
2022-07-26T21:38:14.403Z,58.65
2022-07-26T21:40:45.581Z,58.56
2022-07-26T21:43:16.354Z,58.27
2022-07-26T21:45:46.907Z,58.28
2022-07-26T21:48:17.810Z,57.64
2022-07-26T21:50:48.597Z,57.11
2022-07-26T21:53:19.079Z,56.87
2022-07-26T21:55:49.497Z,57.22
2022-07-26T21:58:19.898Z,56.96
2022-07-26T22:00:50.746Z,57.07
2022-07-26T22:03:24.243Z,56.08
2022-07-26T22:05:54.607Z,56.70
2022-07-26T22:08:25.136Z,56.27
2022-07-26T22:10:55.659Z,56.49
2022-07-26T22:13:26.214Z,56.38
2022-07-26T22:15:56.893Z,56.76
2022-07-26T22:18:27.969Z,56.92
2022-07-26T22:21:01.020Z,56.82
2022-07-26T22:23:31.592Z,57.30
2022-07-26T22:26:05.064Z,56.44
2022-07-26T22:28:35.709Z,56.52
2022-07-26T22:31:06.185Z,56.99
2022-07-26T22:33:36.655Z,57.01
2022-07-26T22:36:09.126Z,57.28
2022-07-26T22:38:39.864Z,57.70
2022-07-26T22:41:11.140Z,57.36
2022-07-26T22:43:41.947Z,57.70
2022-07-26T22:46:12.486Z,57.80
2022-07-26T22:48:48.073Z,57.19
2022-07-26T22:51:16.918Z,57.00
2022-07-26T22:53:47.386Z,57.82
2022-07-26T22:56:19.967Z,57.95
2022-07-26T22:58:50.342Z,57.83
2022-07-26T23:01:20.831Z,58.00
2022-07-26T23:03:51.976Z,58.34
2022-07-26T23:06:31.310Z,58.59
2022-07-26T23:08:55.011Z,58.70
2022-07-26T23:11:25.433Z,58.71
2022-07-26T23:13:59.194Z,58.92
2022-07-26T23:16:28.441Z,59.26
2022-07-26T23:18:59.549Z,59.65
2022-07-26T23:21:29.973Z,59.73
2022-07-26T23:24:00.403Z,59.94
2022-07-26T23:26:30.874Z,59.36
2022-07-26T23:29:01.260Z,59.56
2022-07-26T23:31:31.778Z,60.04
2022-07-26T23:34:02.358Z,59.84
2022-07-26T23:36:32.988Z,59.96
2022-07-26T23:39:04.290Z,59.66
2022-07-26T23:41:36.015Z,59.89
2022-07-26T23:44:06.546Z,60.24
2022-07-26T23:46:37.089Z,59.92
2022-07-26T23:49:07.798Z,60.53
2022-07-26T23:51:38.847Z,60.32
2022-07-26T23:54:09.282Z,59.79
2022-07-26T23:56:39.659Z,60.19
2022-07-26T23:59:10.350Z,59.75
